Time;durP1;ratioP1;P1;durP2;ratioP2;P2;SDS_P1;SDS_P2;PMS_P1;PMS_P2;Temp;Humidity;BMP_temperature;BMP_pressure;BME280_temperature;BME280_humidity;BME280_pressure;Samples;Min_cycle;Max_cycle;Signal;HPM_P1;HPM_P2
2021/06/25 00:01:49;;;;;;;7.47;3.65;;;;;;;;;;10062874;28;20075;-69
2021/06/25 00:06:45;;;;;;;6.57;3.47;;;;;;;;;;10089765;28;20054;-67
2021/06/25 00:11:43;;;;;;;5.90;2.90;;;;;;;;;;10093836;28;20044;-69
2021/06/25 00:16:39;;;;;;;7.70;3.90;;;;;;;;;;10083369;28;20074;-67
2021/06/25 00:21:36;;;;;;;6.28;3.88;;;;;;;;;;10079542;28;20150;-69
2021/06/25 00:26:34;;;;;;;8.10;3.80;;;;;;;;;;10086672;28;20051;-68
2021/06/25 00:31:30;;;;;;;6.70;4.20;;;;;;;;;;10074968;28;20497;-69
2021/06/25 00:36:27;;;;;;;6.97;4.57;;;;;;;;;;10092113;28;20047;-69
2021/06/25 00:41:23;;;;;;;9.35;5.63;;;;;;;;;;10078942;28;20042;-72
2021/06/25 00:46:22;;;;;;;9.68;6.03;;;;;;;;;;10092991;28;20042;-71
2021/06/25 00:51:19;;;;;;;13.50;6.85;;;;;;;;;;10092872;28;20047;-71
2021/06/25 00:56:15;;;;;;;11.93;6.97;;;;;;;;;;10083315;28;20142;-71
2021/06/25 01:01:12;;;;;;;10.88;6.53;;;;;;;;;;10092812;28;20101;-70
2021/06/25 01:06:09;;;;;;;12.35;7.30;;;;;;;;;;10080732;28;20043;-71
2021/06/25 01:11:05;;;;;;;11.10;7.63;;;;;;;;;;10085704;28;20122;-69
2021/06/25 01:16:01;;;;;;;9.55;6.55;;;;;;;;;;10080437;28;20090;-70
2021/06/25 01:20:59;;;;;;;8.77;6.38;;;;;;;;;;10089773;28;20047;-70
2021/06/25 01:25:55;;;;;;;10.93;7.30;;;;;;;;;;10078996;28;20046;-70
2021/06/25 01:37:09;;;;;;;11.07;7.32;;;;;;;;;;10083183;28;20125;-71
2021/06/25 01:47:41;;;;;;;14.13;8.10;;;;;;;;;;11866636;23;20077;-69
2021/06/25 01:52:45;;;;;;;13.18;8.90;;;;;;;;;;10157189;28;20105;-70
2021/06/25 01:57:42;;;;;;;12.40;8.27;;;;;;;;;;10150465;28;20137;-70
2021/06/25 02:02:38;;;;;;;13.77;8.32;;;;;;;;;;10140106;28;20046;-70
2021/06/25 02:07:35;;;;;;;11.57;8.20;;;;;;;;;;10147841;28;20093;-69
2021/06/25 02:12:31;;;;;;;11.73;8.50;;;;;;;;;;10155996;28;22141;-69
2021/06/25 02:17:28;;;;;;;13.68;8.82;;;;;;;;;;10154875;28;20053;-68
2021/06/25 02:22:25;;;;;;;16.23;9.30;;;;;;;;;;10162838;28;20053;-70
2021/06/25 02:27:22;;;;;;;17.73;9.45;;;;;;;;;;10144180;28;20046;-68
2021/06/25 02:32:18;;;;;;;13.88;9.32;;;;;;;;;;10151934;28;20588;-70
2021/06/25 02:37:14;;;;;;;15.00;9.70;;;;;;;;;;10155618;28;20038;-70
2021/06/25 02:42:11;;;;;;;14.88;8.88;;;;;;;;;;10143553;28;20066;-70
2021/06/25 02:47:08;;;;;;;15.57;9.68;;;;;;;;;;10167782;28;20134;-70
2021/06/25 02:52:05;;;;;;;14.13;9.30;;;;;;;;;;10156533;28;20039;-69
2021/06/25 02:57:02;;;;;;;15.45;10.30;;;;;;;;;;10149504;28;20080;-69
2021/06/25 03:01:58;;;;;;;20.30;11.65;;;;;;;;;;10150301;28;20551;-68
2021/06/25 03:06:54;;;;;;;19.67;12.43;;;;;;;;;;10152674;28;20570;-67
2021/06/25 03:11:51;;;;;;;17.17;11.60;;;;;;;;;;10146509;28;20050;-68
2021/06/25 03:16:47;;;;;;;17.30;11.98;;;;;;;;;;10148156;28;20054;-68
2021/06/25 03:21:44;;;;;;;20.65;11.82;;;;;;;;;;10151751;28;20043;-68
2021/06/25 03:26:40;;;;;;;20.27;12.52;;;;;;;;;;10155354;28;20046;-68
2021/06/25 03:31:37;;;;;;;19.48;13.27;;;;;;;;;;10148274;28;20070;-68
2021/06/25 03:36:33;;;;;;;17.92;11.25;;;;;;;;;;10155144;28;20077;-67
2021/06/25 03:41:29;;;;;;;22.17;14.13;;;;;;;;;;10147267;28;20633;-68
2021/06/25 03:46:26;;;;;;;20.38;12.85;;;;;;;;;;10154780;28;20076;-68
2021/06/25 03:51:22;;;;;;;18.27;12.52;;;;;;;;;;10142497;28;20045;-69
2021/06/25 03:56:18;;;;;;;20.17;12.43;;;;;;;;;;10157650;28;20129;-68
2021/06/25 04:01:16;;;;;;;21.30;12.65;;;;;;;;;;10135374;28;20133;-68
2021/06/25 04:06:12;;;;;;;17.77;12.98;;;;;;;;;;10150509;28;20081;-69
2021/06/25 04:11:09;;;;;;;18.83;10.95;;;;;;;;;;10146408;28;20073;-70
2021/06/25 04:16:05;;;;;;;18.00;10.95;;;;;;;;;;10143154;28;20076;-70
2021/06/25 04:21:02;;;;;;;17.20;10.70;;;;;;;;;;10158932;28;20097;-69
2021/06/25 04:25:59;;;;;;;18.40;12.43;;;;;;;;;;10153304;28;20504;-69
2021/06/25 04:30:56;;;;;;;19.45;12.73;;;;;;;;;;10148942;28;20484;-69
2021/06/25 04:35:53;;;;;;;22.17;13.10;;;;;;;;;;10146600;28;20050;-67
2021/06/25 04:40:50;;;;;;;23.75;13.30;;;;;;;;;;10145282;28;20131;-67
2021/06/25 04:45:47;;;;;;;16.60;11.68;;;;;;;;;;10142780;28;20463;-66
2021/06/25 04:50:44;;;;;;;22.95;12.63;;;;;;;;;;10136015;28;20074;-67
2021/06/25 04:55:41;;;;;;;19.25;11.65;;;;;;;;;;10141658;28;20065;-68
2021/06/25 05:00:38;;;;;;;19.30;11.70;;;;;;;;;;10141180;28;20065;-67
2021/06/25 05:05:36;;;;;;;18.88;11.65;;;;;;;;;;10143998;28;20061;-66
2021/06/25 05:10:32;;;;;;;17.58;11.75;;;;;;;;;;10142026;28;20101;-66
2021/06/25 05:15:30;;;;;;;17.27;10.63;;;;;;;;;;10141496;28;20059;-67
2021/06/25 05:20:26;;;;;;;17.13;11.77;;;;;;;;;;10138853;28;20149;-67
2021/06/25 05:25:23;;;;;;;19.17;12.00;;;;;;;;;;10149134;28;20045;-68
2021/06/25 05:30:20;;;;;;;25.25;12.55;;;;;;;;;;10140455;28;20069;-67
2021/06/25 05:35:16;;;;;;;18.90;12.77;;;;;;;;;;10146608;28;20050;-67
2021/06/25 05:40:13;;;;;;;17.92;12.85;;;;;;;;;;10146412;28;20497;-67
2021/06/25 05:45:10;;;;;;;20.35;13.73;;;;;;;;;;10143705;28;20141;-67
2021/06/25 05:50:06;;;;;;;22.80;13.18;;;;;;;;;;10137485;28;20046;-68
2021/06/25 05:55:03;;;;;;;23.83;16.13;;;;;;;;;;10148160;28;20062;-67
2021/06/25 05:59:59;;;;;;;24.08;15.77;;;;;;;;;;10141574;28;20093;-67
2021/06/25 06:04:56;;;;;;;21.17;15.35;;;;;;;;;;10137605;28;20449;-68
2021/06/25 06:09:53;;;;;;;19.90;13.60;;;;;;;;;;10145274;28;20050;-69
2021/06/25 06:14:49;;;;;;;15.32;11.10;;;;;;;;;;10138763;28;20060;-70
2021/06/25 06:19:48;;;;;;;14.18;10.00;;;;;;;;;;10137832;28;20050;-70
2021/06/25 06:35:15;;;;;;;14.38;8.93;;;;;;;;;;10148090;28;20109;-69
2021/06/25 06:40:11;;;;;;;12.68;7.43;;;;;;;;;;10146014;28;20146;-69
2021/06/25 06:45:09;;;;;;;9.63;6.20;;;;;;;;;;10153341;28;20824;-70
2021/06/25 06:50:05;;;;;;;8.57;6.60;;;;;;;;;;10151678;28;20054;-70
2021/06/25 06:55:02;;;;;;;11.65;6.32;;;;;;;;;;10156589;28;20046;-69
2021/06/25 06:59:58;;;;;;;10.82;6.20;;;;;;;;;;10149884;28;20042;-69
2021/06/25 07:04:54;;;;;;;8.07;5.10;;;;;;;;;;10143582;28;20230;-70
2021/06/25 07:09:50;;;;;;;8.38;4.60;;;;;;;;;;10156196;28;20070;-70
2021/06/25 07:14:47;;;;;;;9.82;4.32;;;;;;;;;;10150546;28;20141;-69
2021/06/25 07:19:43;;;;;;;9.43;4.18;;;;;;;;;;10146722;28;20070;-69
2021/06/25 07:24:39;;;;;;;10.05;4.78;;;;;;;;;;10141617;28;20813;-69
2021/06/25 07:29:36;;;;;;;8.52;5.35;;;;;;;;;;10148005;28;20077;-69
2021/06/25 07:34:32;;;;;;;7.55;4.22;;;;;;;;;;10154325;28;20065;-70
2021/06/25 07:39:28;;;;;;;7.10;4.03;;;;;;;;;;10147341;28;20511;-70
2021/06/25 07:44:24;;;;;;;8.63;4.13;;;;;;;;;;10147502;28;20123;-70
2021/06/25 07:49:21;;;;;;;7.43;4.00;;;;;;;;;;10154516;28;20428;-71
2021/06/25 07:54:17;;;;;;;8.05;4.45;;;;;;;;;;10158304;28;20052;-71
2021/06/25 07:59:14;;;;;;;9.05;4.10;;;;;;;;;;10143721;28;20050;-71
2021/06/25 08:04:10;;;;;;;9.73;4.10;;;;;;;;;;10155232;28;20049;-70
2021/06/25 08:09:07;;;;;;;7.00;4.15;;;;;;;;;;10145990;28;20062;-70
2021/06/25 08:14:04;;;;;;;11.07;4.75;;;;;;;;;;10145898;28;20097;-71
2021/06/25 08:19:00;;;;;;;6.32;3.92;;;;;;;;;;10149331;28;20057;-69
2021/06/25 08:23:57;;;;;;;7.43;3.58;;;;;;;;;;10162320;28;20058;-70
2021/06/25 08:28:54;;;;;;;8.27;4.22;;;;;;;;;;10146343;28;20077;-70
2021/06/25 08:33:50;;;;;;;6.45;4.20;;;;;;;;;;10147733;28;20620;-70
2021/06/25 08:38:46;;;;;;;11.35;5.50;;;;;;;;;;10142558;28;20148;-70
2021/06/25 08:43:42;;;;;;;7.78;4.70;;;;;;;;;;10148512;28;20576;-71
2021/06/25 08:48:39;;;;;;;7.60;5.15;;;;;;;;;;10146592;28;20519;-71
2021/06/25 08:53:35;;;;;;;7.43;4.68;;;;;;;;;;10150479;28;20077;-69
2021/06/25 08:58:31;;;;;;;7.82;5.25;;;;;;;;;;10143508;28;20042;-70
2021/06/25 09:03:29;;;;;;;6.93;4.95;;;;;;;;;;10150437;28;20535;-71
2021/06/25 09:08:26;;;;;;;7.68;4.35;;;;;;;;;;10145736;28;20567;-72
2021/06/25 09:13:33;;;;;;;7.20;4.63;;;;;;;;;;10144404;28;20134;-69
2021/06/25 09:18:29;;;;;;;6.53;4.50;;;;;;;;;;10137991;28;20134;-70
2021/06/25 09:23:32;;;;;;;9.23;4.70;;;;;;;;;;10147694;28;20070;-70
2021/06/25 09:28:32;;;;;;;7.75;4.35;;;;;;;;;;10137693;28;20101;-71
2021/06/25 09:33:29;;;;;;;6.90;4.40;;;;;;;;;;10147643;28;20542;-70
2021/06/25 09:38:29;;;;;;;6.57;4.40;;;;;;;;;;10143850;28;20483;-69
2021/06/25 09:43:32;;;;;;;7.30;3.65;;;;;;;;;;10144720;28;20070;-70
2021/06/25 09:48:29;;;;;;;;;;;;;;;;;;10139535;28;20055;-70
2021/06/25 09:53:29;;;;;;;6.30;4.00;;;;;;;;;;10141918;28;19929;-70
2021/06/25 09:58:43;;;;;;;7.57;3.40;;;;;;;;;;10148185;28;20420;-70
2021/06/25 10:04:01;;;;;;;5.13;2.97;;;;;;;;;;10148510;28;20038;-69
2021/06/25 10:08:57;;;;;;;5.28;2.83;;;;;;;;;;10148657;28;20069;-70
2021/06/25 10:13:55;;;;;;;6.72;3.30;;;;;;;;;;10158182;28;20070;-72
2021/06/25 10:18:52;;;;;;;7.75;4.82;;;;;;;;;;10138513;28;20039;-71
2021/06/25 10:23:53;;;;;;;9.40;4.40;;;;;;;;;;10161706;28;20097;-70
2021/06/25 10:28:50;;;;;;;7.82;4.30;;;;;;;;;;10143021;28;20393;-70
2021/06/25 10:33:47;;;;;;;8.63;5.93;;;;;;;;;;10156331;28;20042;-72
2021/06/25 10:38:44;;;;;;;10.00;5.70;;;;;;;;;;10144953;28;20078;-69
2021/06/25 10:43:52;;;;;;;9.00;5.00;;;;;;;;;;10154161;28;20130;-69
2021/06/25 10:48:51;;;;;;;8.15;4.95;;;;;;;;;;10140784;28;21844;-71
2021/06/25 10:54:09;;;;;;;7.97;5.47;;;;;;;;;;10150547;28;20101;-70
2021/06/25 10:59:19;;;;;;;7.88;4.82;;;;;;;;;;10154315;28;20069;-71
2021/06/25 11:04:31;;;;;;;7.28;3.72;;;;;;;;;;10147450;28;20042;-70
2021/06/25 11:09:48;;;;;;;6.40;4.40;;;;;;;;;;10146186;28;20046;-70
2021/06/25 11:14:44;;;;;;;5.65;3.80;;;;;;;;;;10150782;28;20417;-69
2021/06/25 11:19:41;;;;;;;5.80;3.70;;;;;;;;;;10147629;28;20066;-68
2021/06/25 11:24:51;;;;;;;7.95;3.15;;;;;;;;;;10147686;28;20065;-69
2021/06/25 11:29:49;;;;;;;7.88;3.90;;;;;;;;;;10154083;28;20050;-69
2021/06/25 11:34:45;;;;;;;6.25;4.10;;;;;;;;;;10161790;28;20535;-70
2021/06/25 11:39:48;;;;;;;5.50;3.95;;;;;;;;;;10149072;28;20070;-69
2021/06/25 11:44:47;;;;;;;6.18;4.75;;;;;;;;;;10155393;28;20389;-70
2021/06/25 11:49:49;;;;;;;8.02;4.97;;;;;;;;;;10148561;28;20094;-69
2021/06/25 11:54:47;;;;;;;7.13;3.95;;;;;;;;;;10156043;28;20149;-70
2021/06/25 12:00:03;;;;;;;6.90;4.20;;;;;;;;;;10149062;28;20100;-69
2021/06/25 12:04:59;;;;;;;7.60;4.32;;;;;;;;;;10144412;28;20141;-69
2021/06/25 12:09:56;;;;;;;5.63;3.70;;;;;;;;;;10150171;28;20046;-69
2021/06/25 12:14:54;;;;;;;6.65;4.75;;;;;;;;;;10150659;28;20046;-69
2021/06/25 12:19:55;;;;;;;6.65;5.32;;;;;;;;;;10145993;28;20069;-70
2021/06/25 12:24:53;;;;;;;7.47;4.65;;;;;;;;;;10148872;28;20035;-71
2021/06/25 12:29:59;;;;;;;6.43;4.45;;;;;;;;;;10147371;28;20816;-69
2021/06/25 12:34:57;;;;;;;7.80;5.00;;;;;;;;;;10154135;28;20054;-69
2021/06/25 12:39:53;;;;;;;5.68;3.85;;;;;;;;;;10145819;28;20508;-71
2021/06/25 12:44:49;;;;;;;6.28;4.78;;;;;;;;;;10148590;28;20089;-71
2021/06/25 12:49:46;;;;;;;8.05;3.78;;;;;;;;;;10145265;28;20566;-68
2021/06/25 12:54:43;;;;;;;6.45;3.70;;;;;;;;;;10146732;28;20073;-69
2021/06/25 12:59:39;;;;;;;6.40;4.45;;;;;;;;;;10150523;28;20061;-69
2021/06/25 13:04:40;;;;;;;8.25;6.10;;;;;;;;;;10146176;28;20073;-69
2021/06/25 13:09:38;;;;;;;6.15;4.10;;;;;;;;;;10144062;28;20046;-69
2021/06/25 13:14:38;;;;;;;7.00;4.32;;;;;;;;;;10145452;28;20083;-70
2021/06/25 13:19:47;;;;;;;5.60;3.83;;;;;;;;;;10152067;28;20452;-69
2021/06/25 13:24:43;;;;;;;6.70;4.65;;;;;;;;;;10145877;28;20039;-68
2021/06/25 13:29:48;;;;;;;5.50;4.05;;;;;;;;;;10142766;28;20078;-69
2021/06/25 13:34:58;;;;;;;5.70;3.80;;;;;;;;;;10149578;28;20047;-69
2021/06/25 13:39:59;;;;;;;6.13;3.72;;;;;;;;;;10152452;28;20497;-70
2021/06/25 13:45:12;;;;;;;7.43;4.68;;;;;;;;;;10150977;28;20070;-69
2021/06/25 13:50:09;;;;;;;7.20;4.85;;;;;;;;;;10149739;28;20054;-69
2021/06/25 13:55:10;;;;;;;8.50;5.10;;;;;;;;;;10156884;28;20054;-69
2021/06/25 14:00:24;;;;;;;5.70;4.47;;;;;;;;;;10155881;28;20129;-69
2021/06/25 14:05:21;;;;;;;8.80;4.45;;;;;;;;;;10154062;28;20046;-68
2021/06/25 14:10:17;;;;;;;5.63;3.70;;;;;;;;;;10159676;28;20133;-69
2021/06/25 14:15:13;;;;;;;5.97;3.92;;;;;;;;;;10156396;28;20050;-70
2021/06/25 14:20:10;;;;;;;4.72;3.40;;;;;;;;;;10150606;28;20066;-69
2021/06/25 14:25:06;;;;;;;6.90;4.43;;;;;;;;;;10148784;28;20050;-70
2021/06/25 14:30:03;;;;;;;6.70;3.72;;;;;;;;;;10151040;28;20073;-68
2021/06/25 14:34:59;;;;;;;11.63;3.88;;;;;;;;;;10152466;28;20393;-69
2021/06/25 14:39:55;;;;;;;6.18;4.22;;;;;;;;;;10146975;28;20080;-69
2021/06/25 14:44:52;;;;;;;6.47;3.60;;;;;;;;;;10151837;28;20066;-70
2021/06/25 14:49:48;;;;;;;6.25;3.85;;;;;;;;;;10151512;28;20137;-69
2021/06/25 14:54:44;;;;;;;6.32;2.88;;;;;;;;;;10157269;28;20420;-69
2021/06/25 14:59:40;;;;;;;4.65;2.80;;;;;;;;;;10144822;28;20062;-69
2021/06/25 15:04:37;;;;;;;4.20;2.80;;;;;;;;;;10149459;28;20042;-68
2021/06/25 15:09:33;;;;;;;5.55;3.33;;;;;;;;;;10145820;28;20105;-68
2021/06/25 15:14:29;;;;;;;8.07;4.15;;;;;;;;;;10150786;28;20078;-68
2021/06/25 15:19:26;;;;;;;5.07;3.65;;;;;;;;;;10149755;28;20717;-69
2021/06/25 15:24:22;;;;;;;4.50;3.15;;;;;;;;;;10149234;28;20089;-70
2021/06/25 15:29:19;;;;;;;6.50;4.28;;;;;;;;;;10147952;28;20129;-69
2021/06/25 15:34:16;;;;;;;7.10;4.20;;;;;;;;;;10150522;28;20050;-69
2021/06/25 15:39:14;;;;;;;5.47;3.17;;;;;;;;;;10161260;28;20393;-70
2021/06/25 15:44:11;;;;;;;5.20;4.30;;;;;;;;;;10153683;28;20096;-70
2021/06/25 15:49:08;;;;;;;5.97;3.42;;;;;;;;;;10158190;28;20074;-70
2021/06/25 15:54:04;;;;;;;5.85;3.85;;;;;;;;;;10153787;28;20074;-70
2021/06/25 15:59:00;;;;;;;7.15;4.00;;;;;;;;;;10161331;28;20042;-69
2021/06/25 16:03:57;;;;;;;7.13;4.07;;;;;;;;;;10161307;28;20061;-69
2021/06/25 16:13:49;;;;;;;4.50;3.35;;;;;;;;;;10152805;28;20054;-70
2021/06/25 16:18:48;;;;;;;7.82;4.00;;;;;;;;;;10167431;28;20076;-70
2021/06/25 16:23:44;;;;;;;7.82;3.40;;;;;;;;;;10151681;28;20478;-69
2021/06/25 16:28:42;;;;;;;5.10;3.20;;;;;;;;;;10146030;28;20497;-70
2021/06/25 16:33:38;;;;;;;4.53;3.00;;;;;;;;;;10168184;28;20109;-70
2021/06/25 16:38:35;;;;;;;5.25;3.45;;;;;;;;;;10145652;28;20551;-70
2021/06/25 16:43:31;;;;;;;5.32;4.00;;;;;;;;;;10137828;28;20042;-69
2021/06/25 16:48:28;;;;;;;5.85;3.50;;;;;;;;;;10146650;28;20089;-70
2021/06/25 16:53:29;;;;;;;6.75;2.88;;;;;;;;;;10154099;28;20042;-72
2021/06/25 16:58:25;;;;;;;5.07;3.40;;;;;;;;;;10156938;28;20066;-69
2021/06/25 17:03:21;;;;;;;5.65;3.53;;;;;;;;;;10152440;28;20033;-71
2021/06/25 17:08:18;;;;;;;5.05;3.30;;;;;;;;;;10154868;28;20055;-70
2021/06/25 17:13:14;;;;;;;6.20;2.83;;;;;;;;;;10149085;28;20125;-70
2021/06/25 17:18:11;;;;;;;6.15;3.25;;;;;;;;;;10149449;28;20132;-69
2021/06/25 17:23:08;;;;;;;5.35;2.72;;;;;;;;;;10164079;28;20121;-69
2021/06/25 17:28:05;;;;;;;5.68;3.28;;;;;;;;;;10159219;28;20069;-71
2021/06/25 17:33:01;;;;;;;6.32;4.22;;;;;;;;;;10154768;28;20096;-70
2021/06/25 17:37:59;;;;;;;7.28;3.45;;;;;;;;;;10155850;28;20124;-68
2021/06/25 17:42:56;;;;;;;6.35;3.60;;;;;;;;;;10151446;28;20050;-69
2021/06/25 17:47:52;;;;;;;7.85;3.47;;;;;;;;;;10162213;28;20469;-71
2021/06/25 17:52:48;;;;;;;7.75;3.88;;;;;;;;;;10153030;28;20524;-70
2021/06/25 17:57:45;;;;;;;5.55;2.80;;;;;;;;;;10156710;28;20556;-69
2021/06/25 18:02:42;;;;;;;4.50;3.00;;;;;;;;;;10150453;28;20042;-70
2021/06/25 18:07:38;;;;;;;4.50;2.58;;;;;;;;;;10149395;28;20042;-70
2021/06/25 18:12:35;;;;;;;4.70;2.40;;;;;;;;;;10158486;28;20073;-70
2021/06/25 18:17:31;;;;;;;5.13;2.60;;;;;;;;;;10164963;28;20061;-69
2021/06/25 18:22:28;;;;;;;6.68;3.03;;;;;;;;;;10169638;28;20131;-68
2021/06/25 18:27:24;;;;;;;5.05;2.90;;;;;;;;;;10163424;28;20047;-69
2021/06/25 18:32:21;;;;;;;4.15;2.70;;;;;;;;;;10164192;28;20574;-69
2021/06/25 18:37:17;;;;;;;4.85;2.67;;;;;;;;;;10165437;28;20563;-71
2021/06/25 18:42:13;;;;;;;5.75;2.95;;;;;;;;;;10165236;28;20098;-69
2021/06/25 18:47:10;;;;;;;6.03;2.63;;;;;;;;;;10167129;28;20045;-71
2021/06/25 18:52:06;;;;;;;4.32;2.83;;;;;;;;;;10155559;28;20038;-69
2021/06/25 18:57:02;;;;;;;3.92;2.30;;;;;;;;;;10166239;28;20142;-68
2021/06/25 19:02:00;;;;;;;4.07;2.63;;;;;;;;;;10165688;28;20070;-68
2021/06/25 19:06:56;;;;;;;5.88;2.20;;;;;;;;;;10165911;28;20069;-67
2021/06/25 19:11:52;;;;;;;5.90;2.58;;;;;;;;;;10151113;28;20601;-66
2021/06/25 19:16:49;;;;;;;7.43;2.33;;;;;;;;;;10145150;28;20069;-67
2021/06/25 19:21:46;;;;;;;4.50;2.20;;;;;;;;;;10153242;28;20417;-67
2021/06/25 19:26:42;;;;;;;4.00;2.10;;;;;;;;;;10144660;28;20121;-67
2021/06/25 19:31:38;;;;;;;4.45;2.30;;;;;;;;;;10146353;28;20046;-67
2021/06/25 19:36:37;;;;;;;6.22;2.30;;;;;;;;;;10152713;28;20051;-67
2021/06/25 19:41:33;;;;;;;4.20;2.47;;;;;;;;;;10148439;28;20527;-68
2021/06/25 19:46:30;;;;;;;4.75;2.30;;;;;;;;;;10151405;28;20074;-67
2021/06/25 19:51:26;;;;;;;4.72;2.20;;;;;;;;;;10153590;28;20045;-67
2021/06/25 19:56:23;;;;;;;4.15;2.15;;;;;;;;;;10141726;28;20158;-67
2021/06/25 20:01:19;;;;;;;5.70;2.50;;;;;;;;;;10140787;28;20397;-71
2021/06/25 20:06:16;;;;;;;5.72;2.53;;;;;;;;;;10148400;28;20038;-70
2021/06/25 20:11:13;;;;;;;4.22;2.47;;;;;;;;;;10149015;28;20046;-69
2021/06/25 20:16:09;;;;;;;7.93;4.25;;;;;;;;;;10139383;28;20054;-71
2021/06/25 20:21:06;;;;;;;7.90;4.80;;;;;;;;;;10146479;28;20049;-68
2021/06/25 20:26:02;;;;;;;7.97;4.70;;;;;;;;;;10129969;28;20046;-68
2021/06/25 20:30:59;;;;;;;6.90;4.00;;;;;;;;;;10139206;28;20150;-68
2021/06/25 20:35:56;;;;;;;7.15;4.13;;;;;;;;;;10137327;28;20390;-69
2021/06/25 20:40:52;;;;;;;6.93;3.80;;;;;;;;;;10156058;28;20077;-67
2021/06/25 20:45:49;;;;;;;7.68;3.88;;;;;;;;;;10138043;28;20105;-68
2021/06/25 20:50:45;;;;;;;6.65;3.95;;;;;;;;;;10142764;28;20129;-68
2021/06/25 20:55:51;;;;;;;7.70;3.83;;;;;;;;;;10145449;28;20050;-69
2021/06/25 21:00:49;;;;;;;8.15;4.10;;;;;;;;;;10136037;28;20054;-71
2021/06/25 21:05:45;;;;;;;7.18;4.28;;;;;;;;;;10133209;28;20108;-68
2021/06/25 21:10:42;;;;;;;6.30;4.30;;;;;;;;;;10142919;28;20077;-68
2021/06/25 21:15:41;;;;;;;6.25;3.80;;;;;;;;;;10143122;28;20080;-71
2021/06/25 21:20:38;;;;;;;8.13;4.43;;;;;;;;;;10140897;28;20046;-68
2021/06/25 21:25:35;;;;;;;6.78;4.63;;;;;;;;;;10141343;28;20070;-68
2021/06/25 21:30:31;;;;;;;6.32;4.25;;;;;;;;;;10138827;28;20145;-70
2021/06/25 21:35:28;;;;;;;7.25;4.65;;;;;;;;;;10150042;28;20562;-68
2021/06/25 21:40:25;;;;;;;5.68;4.57;;;;;;;;;;10144640;28;20057;-67
2021/06/25 21:45:21;;;;;;;8.20;4.22;;;;;;;;;;10145170;28;20109;-68
2021/06/25 21:50:17;;;;;;;5.75;4.47;;;;;;;;;;10145826;28;20082;-67
2021/06/25 21:55:14;;;;;;;6.25;4.32;;;;;;;;;;10155897;28;20053;-68
2021/06/25 22:00:12;;;;;;;9.40;4.28;;;;;;;;;;10151383;28;20090;-70
2021/06/25 22:05:09;;;;;;;7.00;4.43;;;;;;;;;;10153219;28;20052;-69
2021/06/25 22:10:06;;;;;;;9.00;4.30;;;;;;;;;;10155341;28;20062;-68
2021/06/25 22:15:03;;;;;;;6.30;4.00;;;;;;;;;;10148890;28;20093;-70
2021/06/25 22:20:01;;;;;;;7.68;3.88;;;;;;;;;;10144203;28;20058;-70
2021/06/25 22:24:58;;;;;;;6.72;4.25;;;;;;;;;;10145303;28;20062;-69
2021/06/25 22:29:54;;;;;;;9.82;4.65;;;;;;;;;;10148659;28;20048;-70
2021/06/25 22:34:50;;;;;;;6.80;4.30;;;;;;;;;;10150235;28;20596;-70
2021/06/25 22:39:47;;;;;;;10.48;5.43;;;;;;;;;;10142076;28;20051;-69
2021/06/25 22:44:44;;;;;;;8.60;4.38;;;;;;;;;;10159603;28;20042;-70
2021/06/25 22:49:40;;;;;;;7.28;4.70;;;;;;;;;;10151913;28;20042;-69
2021/06/25 22:54:37;;;;;;;7.45;4.15;;;;;;;;;;10157796;28;20137;-70
2021/06/25 22:59:35;;;;;;;7.45;4.60;;;;;;;;;;10143370;28;20176;-70
2021/06/25 23:04:33;;;;;;;5.78;4.25;;;;;;;;;;10146508;28;20046;-70
2021/06/25 23:09:30;;;;;;;6.78;4.18;;;;;;;;;;10146646;28;20047;-69
2021/06/25 23:14:27;;;;;;;6.68;4.50;;;;;;;;;;10159290;28;20137;-69
2021/06/25 23:19:23;;;;;;;6.18;4.35;;;;;;;;;;10142910;28;20104;-72
2021/06/25 23:24:20;;;;;;;6.20;4.25;;;;;;;;;;10148915;28;20074;-68
2021/06/25 23:29:16;;;;;;;6.00;4.60;;;;;;;;;;10155540;28;20570;-68
2021/06/25 23:34:12;;;;;;;7.50;4.30;;;;;;;;;;10143218;28;20386;-69
2021/06/25 23:39:09;;;;;;;7.50;4.43;;;;;;;;;;10143175;28;20047;-69
2021/06/25 23:44:05;;;;;;;5.93;4.18;;;;;;;;;;10148949;28;20046;-69
2021/06/25 23:49:01;;;;;;;6.90;4.85;;;;;;;;;;10145096;28;20146;-69
2021/06/25 23:53:57;;;;;;;5.53;4.53;;;;;;;;;;10153990;28;20133;-69
2021/06/25 23:58:54;;;;;;;7.00;4.80;;;;;;;;;;10149262;28;20125;-69
